Latest Weather Observations for Tewantin

IDQ60801

Issued at 7:32 am EST Saturday 18 August 2018 (issued every 10 minutes, with the page automatically refreshed every 10 minutes)

About weather observations | Map of weather stations | Latest weather observations for QLD | Other Formats
Station Details ID: 040908 Name: TEWANTIN RSL PARK Lat: -26.39 Lon: 153.04 Height: 6.4 m
Data from the previous 72 hours. | See also: Recent months at Tewantin
Date/Time
EST
Temp
°C
App
Temp
°C
Dew
Point
°C
Rel
Hum
%
Delta-T
°C
Wind Press
QNH
hPa
Press
MSL
hPa
Rain since
9am
mm
Dir  Spd
km/h
Gust
km/h
Spd
kts
Gust
kts
18/07:30am 13.3 12.8 7.7 69 2.7 CALM 0 0 0 0 1017.3 1017.3 0.0
18/07:00am 11.6 11.2 8.1 79 1.7 CALM 0 0 0 0 1017.1 1017.1 0.0
18/06:30am 10.2 9.6 7.3 82 1.4 CALM 0 0 0 0 1016.8 1016.8 0.0
18/06:00am 10.6 10.0 7.3 80 1.6 CALM 0 0 0 0 1016.3 1016.3 0.0
18/05:30am 10.4 9.6 6.5 77 1.8 CALM 0 0 0 0 1016.2 1016.2 0.0
18/05:00am 10.3 9.5 6.3 76 1.9 CALM 0 0 0 0 1015.8 1015.8 0.0
18/04:30am 10.8 9.0 7.1 78 1.8 NW 6 9 3 5 1015.4 1015.4 0.0
18/04:00am 11.3 9.7 7.8 79 1.7 NNW 6 7 3 4 1015.2 1015.2 0.0
18/03:30am 11.5 9.7 7.8 78 1.8 NNW 7 9 4 5 1015.1 1015.1 0.0
18/03:00am 11.5 10.5 8.7 83 1.4 NNW 4 7 2 4 1015.1 1015.1 0.0
18/02:30am 11.9 11.0 7.6 75 2.1 NW 2 7 1 4 1015.1 1015.1 0.0
18/02:00am 12.3 10.7 7.8 74 2.2 NW 6 7 3 4 1015.1 1015.1 0.0
18/01:30am 12.6 11.8 8.1 74 2.2 NNW 2 6 1 3 1015.0 1015.0 0.0
18/01:00am 13.2 12.3 7.6 69 2.7 NW 2 9 1 5 1015.0 1015.0 0.0
18/12:30am 13.4 11.7 7.6 68 2.8 NW 6 7 3 4 1015.2 1015.2 0.0
18/12:00am 13.6 12.5 8.4 71 2.6 NW 4 7 2 4 1015.1 1015.1 0.0
 
Date/Time
EST
Temp
°C
App
Temp
°C
Dew
Point
°C
Rel
Hum
%
Delta-T
°C
Wind Press
QNH
hPa
Press
MSL
hPa
Rain since
9am
mm
Dir  Spd
km/h
Gust
km/h
Spd
kts
Gust
kts
17/11:30pm 13.4 12.9 9.5 77 2.0 WNW 2 7 1 4 1015.1 1015.1 0.0
17/11:00pm 13.8 14.0 11.7 87 1.1 NNW 2 7 1 4 1015.2 1015.2 0.0
17/10:30pm 13.7 14.5 12.4 92 0.7 CALM 0 0 0 0 1015.1 1015.1 0.0
17/10:00pm 14.0 14.8 12.7 92 0.7 CALM 0 0 0 0 1015.0 1015.0 0.0
17/09:30pm 14.6 15.6 13.3 92 0.7 CALM 0 0 0 0 1014.9 1014.9 0.0
17/09:00pm 15.4 16.0 11.8 79 1.9 CALM 0 0 0 0 1014.8 1014.8 0.0
17/08:30pm 17.1 16.0 10.7 66 3.4 NW 7 11 4 6 1014.5 1014.5 0.0
17/08:00pm 15.4 14.4 10.4 72 2.6 NW 6 7 3 4 1014.3 1014.3 0.0
17/07:30pm 16.3 16.4 12.7 79 2.0 NNW 4 7 2 4 1014.0 1014.0 0.0
17/07:00pm 17.2 18.1 12.9 76 2.4 CALM 0 0 0 0 1013.7 1013.7 0.0
17/06:30pm 18.4 19.0 14.3 77 2.4 SW 4 9 2 5 1013.4 1013.4 0.0
17/06:00pm 19.3 20.8 14.6 74 2.7 CALM 0 0 0 0 1012.9 1012.9 0.0
17/05:30pm 20.4 20.2 13.6 65 3.9 N 7 9 4 5 1012.6 1012.6 0.0
17/05:00pm 21.4 20.9 12.8 58 4.9 NNE 7 11 4 6 1012.2 1012.2 0.0
17/04:30pm 21.7 21.3 14.1 62 4.4 NNE 9 19 5 10 1011.8 1011.8 0.0
17/04:00pm 22.2 21.4 14.1 60 4.7 NE 11 24 6 13 1011.6 1011.6 0.0
17/03:30pm 22.6 21.3 14.7 61 4.7 NE 15 24 8 13 1011.4 1011.4 0.0
17/03:00pm 24.3 23.0 13.8 52 6.2 NE 13 20 7 11 1011.6 1011.6 0.0
17/02:30pm 24.9 21.5 9.2 37 8.5 NE 17 24 9 13 1011.4 1011.4 0.0
17/02:00pm 28.6 25.5 1.2 17 13.2 NW 7 15 4 8 1011.7 1011.7 0.0
17/01:30pm 28.7 25.4 0.4 16 13.5 WNW 7 11 4 6 1012.0 1012.0 0.0
17/01:00pm 27.8 24.4 -0.3 16 13.1 W 7 11 4 6 1012.4 1012.4 0.0
17/12:30pm 27.7 24.1 0.5 17 12.9 WNW 9 15 5 8 1012.8 1012.8 0.0
17/12:00pm 27.0 24.8 6.4 27 10.8 NNW 7 13 4 7 1013.3 1013.3 0.0
17/11:30am 26.3 24.0 5.8 27 10.6 NNW 7 13 4 7 1013.9 1013.9 0.0
17/11:00am 25.4 22.8 4.0 25 10.6 W 7 13 4 7 1014.6 1014.6 0.0
17/10:30am 23.2 21.7 9.2 41 7.5 NW 7 11 4 6 1014.9 1014.9 0.0
17/10:00am 22.0 20.2 9.5 45 6.7 NW 9 13 5 7 1015.2 1015.2 0.0
17/09:30am 20.0 18.5 10.7 55 5.1 NW 9 17 5 9 1015.3 1015.3 0.0
17/09:00am 18.5 17.1 10.8 61 4.2 NW 9 15 5 8 1015.4 1015.4 0.0
17/08:30am 16.7 14.8 9.1 61 3.9 NW 9 15 5 8 1015.4 1015.4 0.0
17/08:00am 15.0 13.6 9.4 69 2.9 NW 7 11 4 6 1015.3 1015.3 0.0
17/07:30am 14.0 12.8 9.4 74 2.4 WNW 6 11 3 6 1015.1 1015.1 0.0
17/07:00am 12.6 11.2 9.6 82 1.5 NW 7 13 4 7 1014.8 1014.8 0.0
17/06:30am 11.6 10.4 9.5 87 1.1 NW 6 9 3 5 1014.6 1014.6 0.0
17/06:00am 11.4 9.9 9.3 87 1.1 NW 7 15 4 8 1014.3 1014.3 0.0
17/05:30am 12.1 10.4 10.0 87 1.1 NW 9 15 5 8 1014.0 1014.0 0.0
17/05:00am 12.0 10.7 9.9 87 1.1 NW 7 11 4 6 1013.7 1013.7 0.0
17/04:30am 12.2 10.9 9.8 85 1.2 NW 7 9 4 5 1013.6 1013.6 0.0
17/04:00am 12.5 11.3 9.7 83 1.4 WNW 6 9 3 5 1013.4 1013.4 0.0
17/03:30am 13.0 11.5 9.3 78 1.9 NW 7 11 4 6 1013.3 1013.3 0.0
17/03:00am 13.6 11.5 9.6 77 2.0 NW 11 17 6 9 1013.3 1013.3 0.0
17/02:30am 14.2 11.9 10.4 78 2.0 NW 13 19 7 10 1013.4 1013.4 0.0
17/02:00am 14.4 12.7 12.4 88 1.1 NW 13 17 7 9 1013.5 1013.5 0.0
17/01:30am 14.4 12.9 13.1 92 0.7 NW 13 20 7 11 1013.5 1013.5 0.0
17/01:00am 14.2 12.6 12.9 92 0.7 WNW 13 17 7 9 1013.8 1013.8 0.0
17/12:30am 14.4 12.9 13.0 91 0.8 NW 13 17 7 9 1014.0 1014.0 0.0
17/12:00am 14.7 13.5 12.7 88 1.1 NW 11 17 6 9 1013.9 1013.9 0.0
 
Date/Time
EST
Temp
°C
App
Temp
°C
Dew
Point
°C
Rel
Hum
%
Delta-T
°C
Wind Press
QNH
hPa
Press
MSL
hPa
Rain since
9am
mm
Dir  Spd
km/h
Gust
km/h
Spd
kts
Gust
kts
16/11:30pm 15.0 13.8 12.7 86 1.3 NW 11 17 6 9 1014.0 1014.0 0.0
16/11:00pm 15.4 14.0 12.2 81 1.7 NW 11 15 6 8 1014.1 1014.1 0.0
16/10:30pm 16.6 15.3 12.4 76 2.3 NW 11 20 6 11 1014.3 1014.3 0.0
16/10:00pm 16.7 15.2 11.8 73 2.7 NW 11 17 6 9 1014.3 1014.3 0.0
16/09:30pm 16.8 15.2 11.5 71 2.9 NNW 11 17 6 9 1014.3 1014.3 0.0
16/09:00pm 17.2 16.0 11.5 69 3.1 NW 9 15 5 8 1014.2 1014.2 0.0
16/08:30pm 17.9 16.3 11.7 67 3.4 NW 11 17 6 9 1013.9 1013.9 0.0
16/08:00pm 18.1 17.6 12.1 68 3.3 NW 6 9 3 5 1013.7 1013.7 0.0
16/07:30pm 18.6 17.7 12.6 68 3.4 NNW 9 15 5 8 1013.4 1013.4 0.0
16/07:00pm 19.3 17.9 12.1 63 4.0 NNW 11 17 6 9 1013.0 1013.0 0.0
16/06:30pm 20.1 18.3 12.1 60 4.5 N 13 22 7 12 1012.6 1012.6 0.0
16/06:00pm 21.3 18.6 11.6 54 5.4 N 17 26 9 14 1012.0 1012.0 0.0
16/05:30pm 22.1 20.3 12.1 53 5.6 N 13 20 7 11 1011.6 1011.6 0.0
16/05:00pm 22.1 21.0 14.2 61 4.6 NNE 13 19 7 10 1011.3 1011.3 0.0
16/04:30pm 22.9 21.9 14.5 59 5.0 NNE 13 20 7 11 1011.0 1011.0 0.0
16/04:00pm 24.0 22.9 13.2 50 6.3 NE 11 17 6 9 1011.0 1011.0 0.0
16/03:30pm 25.5 23.9 11.7 42 7.9 NNE 11 17 6 9 1011.2 1011.2 0.0
16/03:00pm 26.8 23.7 5.7 26 10.9 N 11 17 6 9 1011.4 1011.4 0.0
16/02:30pm 26.6 23.9 9.0 33 9.6 N 13 20 7 11 1011.6 1011.6 0.0
16/02:00pm 26.0 22.8 8.5 33 9.5 N 15 22 8 12 1012.2 1012.2 0.0
16/01:30pm 27.4 25.0 6.8 27 10.9 NW 9 15 5 8 1012.7 1012.7 0.0
16/01:00pm 26.3 23.6 8.8 33 9.5 NW 13 20 7 11 1013.3 1013.3 0.0
16/12:30pm 26.2 24.1 8.2 32 9.7 WNW 9 19 5 10 1013.8 1013.8 0.0
16/12:00pm 25.2 23.6 10.3 39 8.3 NW 9 17 5 9 1014.3 1014.3 0.0
16/11:30am 24.3 21.7 9.5 39 8.1 NW 13 22 7 12 1014.8 1014.8 0.0
16/11:00am 23.5 20.8 9.1 40 7.7 NW 13 24 7 13 1015.4 1015.4 0.0
16/10:30am 22.8 19.1 8.1 39 7.7 WNW 17 32 9 17 1016.0 1016.0 0.0
16/10:00am 21.8 20.3 11.8 53 5.6 NW 11 22 6 12 1016.3 1016.3 0.0
16/09:30am 19.9 18.7 12.7 63 4.1 NNW 11 20 6 11 1016.7 1016.7 0.0
16/09:00am 18.5 17.1 12.3 67 3.4 NW 11 17 6 9 1017.1 1017.1 0.0
16/08:30am 17.2 15.4 12.1 72 2.8 WNW 13 17 7 9 1016.9 1016.9 0.0
16/08:00am 15.9 15.1 13.0 83 1.6 WNW 9 17 5 9 1016.8 1016.8 0.0
16/07:30am 14.1 13.2 13.6 97 0.3 WNW 11 17 6 9 1016.7 1016.7 0.0
16/07:00am 12.9 12.0 12.7 99 0.1 NW 9 15 5 8 1016.6 1016.6 0.0
16/06:30am 12.0 10.9 11.8 99 0.1 NW 9 11 5 6 1016.6 1016.6 0.0
16/06:00am 11.4 10.6 11.2 99 0.1 NW 6 7 3 4 1016.7 1016.7 0.0
16/05:30am 11.7 11.0 11.5 99 0.1 NNW 6 9 3 5 1016.4 1016.4 0.0
16/05:00am 12.1 11.6 11.9 99 0.1 N 6 6 3 3 1016.3 1016.3 0.0
16/04:30am 12.1 11.4 11.9 99 0.1 N 7 9 4 5 1016.1 1016.1 0.0
16/04:00am 11.9 11.1 11.7 99 0.1 NNW 7 7 4 4 1016.1 1016.1 0.0
16/03:30am 12.1 12.3 11.9 99 0.1 NNW 2 6 1 3 1016.3 1016.3 0.0
16/03:00am 12.4 11.9 12.2 99 0.1 NW 6 9 3 5 1016.2 1016.2 0.0
16/02:30am 12.3 11.8 12.0 98 0.2 NNW 6 7 3 4 1016.4 1016.4 0.0
16/02:00am 12.8 12.4 12.3 97 0.3 N 6 7 3 4 1016.8 1016.8 0.0
16/01:30am 13.2 12.9 12.6 96 0.3 N 6 7 3 4 1017.2 1017.2 0.0
16/01:00am 13.5 13.6 11.6 88 1.0 WNW 2 6 1 3 1017.7 1017.7 0.0
16/12:30am 14.1 13.4 12.1 88 1.1 NW 7 9 4 5 1017.5 1017.5 0.0
16/12:00am 14.4 13.7 11.9 85 1.3 NW 7 11 4 6 1017.5 1017.5 0.0
 
Date/Time
EST
Temp
°C
App
Temp
°C
Dew
Point
°C
Rel
Hum
%
Delta-T
°C
Wind Press
QNH
hPa
Press
MSL
hPa
Rain since
9am
mm
Dir  Spd
km/h
Gust
km/h
Spd
kts
Gust
kts
15/11:30pm 14.7 13.6 11.8 83 1.6 NNW 9 13 5 7 1017.7 1017.7 0.0
15/11:00pm 15.0 13.5 11.8 81 1.7 NNW 11 17 6 9 1017.7 1017.7 0.0
15/10:30pm 15.3 13.8 11.9 80 1.8 NNW 11 19 6 10 1017.9 1017.9 0.0
15/10:00pm 15.6 14.3 11.2 75 2.3 NW 9 15 5 8 1018.0 1018.0 0.0
15/09:30pm 15.7 14.2 10.7 72 2.7 NW 9 13 5 7 1018.2 1018.2 0.0
15/09:00pm 16.3 14.5 10.8 70 2.9 NW 11 20 6 11 1018.3 1018.3 0.0
15/08:30pm 16.1 14.7 10.8 71 2.8 NNW 9 13 5 7 1018.3 1018.3 0.0
15/08:00pm 16.8 15.3 10.6 67 3.3 NNW 9 13 5 7 1018.3 1018.3 0.0
15/07:30pm 17.5 15.6 10.6 64 3.7 N 11 15 6 8 1018.3 1018.3 0.0
15/07:00pm 18.1 16.0 11.0 63 3.8 N 13 19 7 10 1018.0 1018.0 0.0
15/06:30pm 18.5 17.0 13.1 71 3.0 N 13 20 7 11 1017.7 1017.7 0.0
15/06:00pm 19.2 17.6 12.7 66 3.6 N 13 20 7 11 1017.6 1017.6 0.0
15/05:30pm 19.3 18.6 14.3 73 2.9 NNE 11 17 6 9 1017.3 1017.3 0.0
15/05:00pm 20.0 17.8 14.4 70 3.2 NNE 19 30 10 16 1016.9 1016.9 0.0
15/04:30pm 20.5 17.7 14.4 68 3.6 NNE 22 32 12 17 1016.8 1016.8 0.0
15/04:00pm 20.9 18.2 14.5 67 3.7 NNE 22 35 12 19 1016.9 1016.9 0.0
15/03:30pm 21.4 19.0 13.8 62 4.4 NNE 19 28 10 15 1016.9 1016.9 0.0
15/03:00pm 22.8 22.2 13.6 56 5.3 NNE 9 19 5 10 1017.1 1017.1 0.0
15/02:30pm 23.5 21.4 11.2 46 6.9 NNE 13 24 7 13 1017.3 1017.3 0.0
15/02:00pm 23.8 20.7 9.0 39 8.0 N 15 22 8 12 1017.9 1017.9 0.0
15/01:30pm 23.2 20.4 8.5 39 7.8 N 13 22 7 12 1018.3 1018.3 0.0
15/01:00pm 23.5 21.2 9.1 40 7.7 NNW 11 19 6 10 1019.0 1019.0 0.0
15/12:30pm 23.0 20.0 7.9 38 7.9 NNW 13 20 7 11 1019.7 1019.7 0.0
15/12:00pm 22.9 20.0 6.6 35 8.3 WNW 11 19 6 10 1020.2 1020.2 0.0
15/11:30am 22.4 19.2 7.0 37 7.9 WNW 13 22 7 12 1020.8 1020.8 0.0
15/11:00am 21.1 17.7 9.0 46 6.4 NNW 17 22 9 12 1021.4 1021.4 0.0
15/10:30am 21.2 18.5 10.4 50 5.9 NNW 15 24 8 13 1021.8 1021.8 0.0
15/10:00am 20.4 19.4 12.4 60 4.5 NW 9 13 5 7 1022.1 1022.1 0.0
15/09:30am 18.6 17.5 13.0 70 3.2 NNW 11 17 6 9 1022.4 1022.4 0.0
15/09:00am 16.4 15.8 12.4 77 2.2 N 7 13 4 7 1022.6 1022.6 0.0
15/08:30am 15.0 13.9 12.1 83 1.6 N 9 11 5 6 1022.6 1022.6 0.0
15/08:00am 13.3 12.7 12.4 94 0.5 NNW 7 9 4 5 1022.5 1022.5 0.0

Other Formats:

Comma delimited format used in spreadsheet applications
http://www.bom.gov.au/fwo/IDQ60801/IDQ60801.94570.axf

JavaScript Object Notation format (JSON) in row-major order
http://www.bom.gov.au/fwo/IDQ60801/IDQ60801.94570.json